createdAt,value
2023-01-07T00:00:01.963Z,-14.12
2023-01-07T00:05:19.088Z,-14.06
2023-01-07T00:10:24.364Z,-13.96
2023-01-07T00:15:29.748Z,-14.11
2023-01-07T00:20:35.041Z,-14.17
2023-01-07T00:25:40.366Z,-14.25
2023-01-07T00:30:45.970Z,-14.44
2023-01-07T00:36:26.299Z,-14.52
2023-01-07T00:41:31.978Z,-14.49
2023-01-07T00:46:37.556Z,-14.29
2023-01-07T00:51:42.690Z,-14.08
2023-01-07T00:56:48.032Z,-13.95
2023-01-07T01:01:54.013Z,-13.93
2023-01-07T01:06:59.412Z,-13.82
2023-01-07T01:12:04.923Z,-13.85
2023-01-07T01:17:10.411Z,-13.78
2023-01-07T01:22:14.635Z,-13.65
2023-01-07T01:27:20.607Z,-13.76
2023-01-07T01:32:26.631Z,-13.85
2023-01-07T01:37:33.176Z,-13.70
2023-01-07T01:42:39.066Z,-13.80
2023-01-07T01:48:05.315Z,-13.82
2023-01-07T01:53:25.258Z,-13.75
2023-01-07T01:59:04.916Z,-13.80
2023-01-07T02:04:16.407Z,-14.02
2023-01-07T02:09:22.337Z,-14.15
2023-01-07T02:14:39.151Z,-13.98
2023-01-07T02:20:01.167Z,-14.24
2023-01-07T02:25:25.018Z,-14.40
2023-01-07T02:30:52.595Z,-14.61
2023-01-07T02:36:21.696Z,-14.61
2023-01-07T02:42:17.019Z,-14.76
2023-01-07T02:47:38.653Z,-15.04
2023-01-07T02:52:44.677Z,-15.28
2023-01-07T02:58:21.521Z,-15.47
2023-01-07T03:03:55.406Z,-15.60
2023-01-07T03:09:35.747Z,-15.82
2023-01-07T03:14:57.443Z,-15.89
2023-01-07T03:20:05.224Z,-15.93
2023-01-07T03:25:13.823Z,-15.97
2023-01-07T03:30:21.779Z,-16.05
2023-01-07T03:35:31.515Z,-15.97
2023-01-07T03:40:37.805Z,-16.00
2023-01-07T03:45:43.846Z,-16.05
2023-01-07T03:50:49.455Z,-15.99
2023-01-07T03:55:55.241Z,-16.04
2023-01-07T04:01:01.183Z,-16.05
2023-01-07T04:06:06.877Z,-16.03
2023-01-07T04:11:12.382Z,-16.08
2023-01-07T04:16:17.834Z,-16.20
2023-01-07T04:21:23.276Z,-16.23
2023-01-07T04:26:28.818Z,-16.23
2023-01-07T04:31:34.481Z,-16.38
2023-01-07T04:36:40.438Z,-16.53
2023-01-07T04:41:45.745Z,-16.44
2023-01-07T04:46:51.395Z,-16.48
2023-01-07T04:51:58.213Z,-16.58
2023-01-07T04:57:03.656Z,-16.59
2023-01-07T05:02:09.155Z,-16.68
2023-01-07T05:07:15.608Z,-16.62
2023-01-07T05:12:21.473Z,-16.62
2023-01-07T05:17:27.001Z,-16.68
2023-01-07T05:22:32.490Z,-16.40
2023-01-07T05:27:38.024Z,-16.07
2023-01-07T05:32:44.769Z,-16.05
2023-01-07T05:37:51.914Z,-16.06
2023-01-07T05:42:58.206Z,-15.96
2023-01-07T05:48:06.225Z,-16.00
2023-01-07T05:53:11.511Z,-16.03
2023-01-07T05:58:17.015Z,-15.99
2023-01-07T06:03:22.810Z,-15.93
2023-01-07T06:08:28.307Z,-15.94
2023-01-07T06:13:34.016Z,-15.69
2023-01-07T06:18:39.191Z,-15.79
2023-01-07T06:23:44.648Z,-15.61
2023-01-07T06:28:51.857Z,-15.37
2023-01-07T06:33:57.104Z,-15.32
2023-01-07T06:39:02.347Z,-15.37
2023-01-07T06:44:07.874Z,-15.56
2023-01-07T06:49:13.259Z,-15.32
2023-01-07T06:54:18.766Z,-15.21
2023-01-07T06:59:24.058Z,-15.27
2023-01-07T07:04:29.255Z,-15.10
2023-01-07T07:09:34.684Z,-15.13
2023-01-07T07:14:40.167Z,-15.00
2023-01-07T07:19:45.454Z,-15.02
2023-01-07T07:24:50.699Z,-15.06
2023-01-07T07:29:56.290Z,-14.96
2023-01-07T07:35:01.557Z,-14.72
2023-01-07T07:40:09.684Z,-14.57
2023-01-07T07:45:16.759Z,-14.32
2023-01-07T07:50:22.230Z,-14.37
2023-01-07T07:55:27.742Z,-14.18
2023-01-07T08:00:33.683Z,-14.01
2023-01-07T08:05:49.086Z,-14.14
2023-01-07T08:10:56.503Z,-14.21
2023-01-07T08:16:01.929Z,-14.12
2023-01-07T08:21:07.508Z,-14.07
2023-01-07T08:26:13.235Z,-13.99
2023-01-07T08:31:18.734Z,-14.10
2023-01-07T08:36:24.279Z,-14.16
2023-01-07T08:41:29.580Z,-14.23
2023-01-07T08:46:35.015Z,-14.16
2023-01-07T08:51:40.337Z,-14.21
2023-01-07T08:56:45.569Z,-14.19
2023-01-07T09:01:50.958Z,-13.92
2023-01-07T09:06:57.836Z,-14.13
2023-01-07T09:12:04.478Z,-14.02
2023-01-07T09:17:10.157Z,-14.14
2023-01-07T09:22:15.496Z,-13.98
2023-01-07T09:27:20.899Z,-14.29
2023-01-07T09:32:27.539Z,-14.23
2023-01-07T09:37:33.013Z,-14.12
2023-01-07T09:43:07.970Z,-14.22
2023-01-07T09:48:36.152Z,-14.31
2023-01-07T09:53:47.092Z,-13.80
2023-01-07T09:58:52.686Z,-13.83
2023-01-07T10:04:50.323Z,-13.93
2023-01-07T10:10:21.075Z,-14.00
2023-01-07T10:15:55.211Z,-14.05
2023-01-07T10:21:28.314Z,-13.93
2023-01-07T10:27:04.712Z,-14.08
2023-01-07T10:43:40.812Z,-13.64
2023-01-07T10:49:09.040Z,-13.56
2023-01-07T10:54:31.449Z,-13.64
2023-01-07T10:59:37.894Z,-13.58
2023-01-07T11:04:43.326Z,-13.63
2023-01-07T11:09:49.459Z,-13.59
2023-01-07T11:14:57.639Z,-13.47
2023-01-07T11:20:03.313Z,-13.73
2023-01-07T11:25:29.330Z,-13.76
2023-01-07T11:30:34.769Z,-13.86
2023-01-07T11:35:53.891Z,-14.03
2023-01-07T11:41:01.007Z,-14.06
2023-01-07T11:46:20.983Z,-14.17
2023-01-07T11:51:41.269Z,-14.19
2023-01-07T11:56:46.638Z,-14.31
2023-01-07T12:02:01.918Z,-14.52
2023-01-07T12:07:15.744Z,-14.41
2023-01-07T12:12:46.270Z,-14.43
2023-01-07T12:18:31.593Z,-14.55
2023-01-07T12:24:12.756Z,-14.69
2023-01-07T12:29:42.238Z,-14.74
2023-01-07T12:35:14.451Z,-14.72
2023-01-07T12:40:43.083Z,-14.73
2023-01-07T12:45:56.984Z,-14.88
2023-01-07T12:51:12.491Z,-14.96
2023-01-07T12:56:58.197Z,-15.07
2023-01-07T13:02:45.708Z,-15.13
2023-01-07T13:07:59.337Z,-15.17
2023-01-07T13:13:28.563Z,-15.21
2023-01-07T13:18:33.881Z,-15.30
2023-01-07T13:24:02.593Z,-15.39
2023-01-07T13:29:32.243Z,-15.44
2023-01-07T13:35:26.839Z,-15.42
2023-01-07T13:40:50.354Z,-15.43
2023-01-07T13:46:16.142Z,-15.53
2023-01-07T13:51:57.174Z,-15.58
2023-01-07T13:57:24.971Z,-15.62
2023-01-07T14:02:52.313Z,-15.74
2023-01-07T14:08:05.137Z,-15.82
2023-01-07T14:13:16.409Z,-15.87
2023-01-07T14:18:40.532Z,-15.80
2023-01-07T14:24:16.756Z,-15.93
2023-01-07T14:29:54.207Z,-16.10
2023-01-07T14:35:23.173Z,-16.28
2023-01-07T14:40:31.140Z,-16.37
2023-01-07T14:46:01.603Z,-16.43
2023-01-07T14:51:48.149Z,-16.50
2023-01-07T14:56:55.853Z,-16.56
2023-01-07T15:02:36.019Z,-16.49
2023-01-07T15:07:43.986Z,-16.57
2023-01-07T15:13:15.514Z,-16.70
2023-01-07T15:18:23.929Z,-16.76
2023-01-07T15:24:11.958Z,-16.76
2023-01-07T15:29:51.516Z,-16.84
2023-01-07T15:34:57.636Z,-16.94
2023-01-07T15:40:03.002Z,-16.90
2023-01-07T15:45:43.548Z,-16.87
2023-01-07T15:50:48.860Z,-16.93
2023-01-07T15:56:11.314Z,-16.92
2023-01-07T16:01:26.389Z,-17.02
2023-01-07T16:06:33.503Z,-17.01
2023-01-07T16:11:39.260Z,-17.03
2023-01-07T16:16:45.002Z,-17.08
2023-01-07T16:21:57.613Z,-16.97
2023-01-07T16:27:05.494Z,-17.08
2023-01-07T16:32:12.694Z,-17.05
2023-01-07T16:37:18.540Z,-16.96
2023-01-07T16:42:24.383Z,-17.01
2023-01-07T16:47:31.784Z,-17.10
2023-01-07T16:52:37.419Z,-17.24
2023-01-07T16:57:45.215Z,-17.28
2023-01-07T17:03:17.075Z,-17.30
2023-01-07T17:08:22.518Z,-17.30
2023-01-07T17:13:52.783Z,-17.37
2023-01-07T17:19:21.424Z,-17.28
2023-01-07T17:24:29.727Z,-17.30
2023-01-07T17:29:39.954Z,-17.27
2023-01-07T17:34:45.466Z,-17.36
2023-01-07T17:39:51.501Z,-17.37
2023-01-07T17:44:57.092Z,-17.35
2023-01-07T17:50:02.460Z,-17.44
2023-01-07T17:55:14.466Z,-17.62
2023-01-07T18:00:26.835Z,-17.65
2023-01-07T18:05:31.985Z,-17.46
2023-01-07T18:10:57.252Z,-17.56
2023-01-07T18:16:02.777Z,-17.62
2023-01-07T18:21:09.912Z,-17.66
2023-01-07T18:26:16.115Z,-17.81
2023-01-07T18:31:21.651Z,-17.84
2023-01-07T18:36:27.050Z,-17.79
2023-01-07T18:41:34.468Z,-17.79
2023-01-07T18:46:40.320Z,-17.88
2023-01-07T18:51:48.570Z,-18.02
2023-01-07T18:56:53.939Z,-17.97
2023-01-07T19:02:01.017Z,-17.94
2023-01-07T19:07:06.433Z,-17.91
2023-01-07T19:12:12.788Z,-18.03
2023-01-07T19:17:18.169Z,-18.10
2023-01-07T19:22:23.566Z,-18.17
2023-01-07T19:27:30.541Z,-18.14
2023-01-07T19:32:35.871Z,-18.09
2023-01-07T19:37:41.025Z,-18.13
2023-01-07T19:42:46.244Z,-18.25
2023-01-07T19:47:52.392Z,-18.31
2023-01-07T19:52:57.699Z,-18.36
2023-01-07T19:58:03.130Z,-18.33
2023-01-07T20:03:08.589Z,-18.39
2023-01-07T20:08:14.009Z,-18.39
2023-01-07T20:13:19.379Z,-18.36
2023-01-07T20:18:24.698Z,-18.50
2023-01-07T20:23:30.063Z,-18.44
2023-01-07T20:28:36.046Z,-18.43
2023-01-07T20:33:42.002Z,-18.40
2023-01-07T20:38:48.433Z,-18.48
2023-01-07T20:43:57.080Z,-18.43
2023-01-07T20:49:02.960Z,-18.34
2023-01-07T20:54:09.464Z,-18.26
2023-01-07T20:59:16.446Z,-18.27
2023-01-07T21:04:21.738Z,-18.40
2023-01-07T21:09:27.009Z,-18.50
2023-01-07T21:14:32.755Z,-18.55
2023-01-07T21:19:40.200Z,-18.49
2023-01-07T21:24:45.501Z,-18.47
2023-01-07T21:29:51.641Z,-18.59
2023-01-07T21:34:57.025Z,-18.70
2023-01-07T21:40:02.723Z,-18.67
2023-01-07T21:45:08.600Z,-18.75
2023-01-07T21:50:15.655Z,-18.64
2023-01-07T21:55:21.042Z,-18.63
2023-01-07T22:00:26.883Z,-18.67
2023-01-07T22:05:32.232Z,-18.71
2023-01-07T22:10:37.395Z,-18.67
2023-01-07T22:15:42.758Z,-18.73
2023-01-07T22:20:55.693Z,-18.71
2023-01-07T22:26:06.420Z,-18.74
2023-01-07T22:32:02.922Z,-18.69
2023-01-07T22:37:32.907Z,-18.56
2023-01-07T23:04:37.948Z,-18.46
2023-01-07T23:15:02.047Z,-18.66
2023-01-07T23:20:08.699Z,-18.66
2023-01-07T23:25:14.282Z,-18.59
2023-01-07T23:30:19.675Z,-18.72
2023-01-07T23:35:25.207Z,-18.60
2023-01-07T23:40:30.624Z,-18.53
2023-01-07T23:45:35.996Z,-18.28
2023-01-07T23:50:41.390Z,-18.13
2023-01-07T23:55:54.380Z,-17.78
